createdAt,value
2018-12-17T00:00:31.142Z,33.33
2018-12-17T00:02:58.672Z,33.63
2018-12-17T00:05:26.183Z,29.80
2018-12-17T00:07:53.712Z,31.73
2018-12-17T00:10:21.236Z,32.90
2018-12-17T00:12:54.949Z,28.23
2018-12-17T00:15:22.486Z,29.73
2018-12-17T00:17:50.079Z,29.10
2018-12-17T00:20:17.603Z,27.00
2018-12-17T00:22:45.205Z,27.87
2018-12-17T00:25:12.717Z,22.87
2018-12-17T00:27:40.320Z,25.77
2018-12-17T00:30:07.849Z,28.47
2018-12-17T00:32:35.702Z,25.57
2018-12-17T00:35:03.283Z,32.27
2018-12-17T00:37:30.814Z,28.67
2018-12-17T00:39:58.904Z,26.97
2018-12-17T00:42:26.514Z,27.90
2018-12-17T00:44:54.147Z,26.23
2018-12-17T00:47:21.674Z,29.73
2018-12-17T00:49:49.194Z,24.73
2018-12-17T00:52:16.907Z,26.87
2018-12-17T00:54:44.431Z,29.27
2018-12-17T00:57:11.951Z,24.50
2018-12-17T00:59:39.458Z,22.77
2018-12-17T01:02:07.051Z,25.87
2018-12-17T01:04:34.625Z,26.53
2018-12-17T01:07:02.304Z,26.23
2018-12-17T01:09:29.824Z,26.73
2018-12-17T01:11:57.347Z,25.50
2018-12-17T01:14:24.858Z,29.73
2018-12-17T01:16:52.373Z,25.30
2018-12-17T01:19:19.879Z,25.27
2018-12-17T01:21:47.489Z,25.83
2018-12-17T01:24:15.019Z,22.07
2018-12-17T01:26:42.527Z,24.97
2018-12-17T01:29:10.039Z,22.40
2018-12-17T01:31:37.665Z,22.67
2018-12-17T01:34:05.183Z,22.43
2018-12-17T01:36:32.692Z,27.70
2018-12-17T01:39:00.266Z,21.90
2018-12-17T01:41:27.766Z,23.60
2018-12-17T01:43:55.282Z,28.07
2018-12-17T01:46:22.787Z,31.87
2018-12-17T01:48:50.291Z,33.87
2018-12-17T01:51:17.803Z,51.03
2018-12-17T01:53:45.430Z,37.37
2018-12-17T01:56:12.971Z,40.37
2018-12-17T01:58:40.510Z,36.40
2018-12-17T02:01:08.030Z,41.63
2018-12-17T02:03:35.567Z,34.50
2018-12-17T02:06:03.112Z,36.07
2018-12-17T02:08:30.705Z,41.40
2018-12-17T02:10:58.220Z,28.87
2018-12-17T02:13:25.856Z,30.57
2018-12-17T02:15:53.362Z,45.40
2018-12-17T02:18:20.877Z,43.17
2018-12-17T02:20:48.489Z,46.37
2018-12-17T02:23:16.036Z,36.03
2018-12-17T02:25:43.576Z,34.60
2018-12-17T02:28:11.095Z,29.93
2018-12-17T02:30:38.599Z,25.77
2018-12-17T02:33:06.115Z,25.10
2018-12-17T02:35:33.639Z,23.03
2018-12-17T02:38:01.153Z,25.43
2018-12-17T02:40:28.666Z,21.23
2018-12-17T02:42:56.212Z,29.03
2018-12-17T02:45:23.755Z,25.53
2018-12-17T02:47:51.283Z,28.90
2018-12-17T02:50:18.808Z,21.17
2018-12-17T02:52:46.339Z,23.53
2018-12-17T02:55:13.978Z,30.87
2018-12-17T02:57:41.495Z,43.67
2018-12-17T03:00:09.067Z,42.50
2018-12-17T03:02:36.582Z,35.60
2018-12-17T03:05:05.867Z,47.23
2018-12-17T03:07:33.388Z,60.30
2018-12-17T03:10:00.909Z,64.47
2018-12-17T03:12:28.420Z,77.10
2018-12-17T03:14:56.014Z,23.10
2018-12-17T03:17:23.635Z,28.97
2018-12-17T03:19:51.149Z,46.73
2018-12-17T03:22:18.681Z,44.43
2018-12-17T03:24:46.204Z,20.53
2018-12-17T03:27:13.740Z,15.57
2018-12-17T03:29:41.342Z,19.97
2018-12-17T03:32:08.886Z,18.90
2018-12-17T03:34:36.410Z,19.00
2018-12-17T03:37:03.945Z,14.47
2018-12-17T03:39:31.452Z,11.37
2018-12-17T03:41:59.006Z,14.73
2018-12-17T03:44:26.518Z,14.13
2018-12-17T03:46:54.026Z,12.77
2018-12-17T03:49:21.601Z,12.63
2018-12-17T03:51:49.190Z,10.37
2018-12-17T03:54:16.708Z,12.77
2018-12-17T03:56:44.216Z,12.03
2018-12-17T03:59:11.735Z,10.83
2018-12-17T04:01:39.235Z,10.47
2018-12-17T04:04:06.745Z,12.43
2018-12-17T04:06:34.258Z,10.13
2018-12-17T04:09:01.776Z,9.20
2018-12-17T04:11:29.284Z,12.27
2018-12-17T04:13:56.796Z,10.50
2018-12-17T04:16:24.290Z,12.13
2018-12-17T04:18:51.804Z,8.73
2018-12-17T04:21:19.328Z,14.17
2018-12-17T04:23:46.840Z,7.30
2018-12-17T04:26:14.354Z,9.60
2018-12-17T04:28:41.858Z,8.73
2018-12-17T04:31:09.370Z,10.43
2018-12-17T04:33:36.965Z,7.70
2018-12-17T04:36:04.467Z,8.03
2018-12-17T04:38:31.993Z,13.73
2018-12-17T04:40:59.509Z,6.80
2018-12-17T04:43:27.023Z,8.07
2018-12-17T04:45:54.523Z,9.13
2018-12-17T04:48:22.064Z,9.53
2018-12-17T04:50:49.567Z,6.80
2018-12-17T04:53:17.083Z,5.53
2018-12-17T04:55:44.605Z,7.00
2018-12-17T04:58:12.230Z,7.03
2018-12-17T05:00:39.741Z,8.23
2018-12-17T05:03:07.258Z,9.23
2018-12-17T05:05:34.803Z,12.50
2018-12-17T05:08:02.313Z,10.13
2018-12-17T05:10:29.820Z,9.87
2018-12-17T05:12:57.351Z,10.73
2018-12-17T05:15:24.864Z,12.43
2018-12-17T05:17:52.373Z,7.80
2018-12-17T05:20:19.924Z,9.70
2018-12-17T05:22:47.448Z,10.63
2018-12-17T05:25:14.964Z,9.97
2018-12-17T05:27:42.464Z,9.43
2018-12-17T05:30:10.070Z,8.90
2018-12-17T05:32:37.592Z,9.07
2018-12-17T05:35:05.170Z,12.60
2018-12-17T05:37:32.805Z,8.80
2018-12-17T05:40:00.320Z,9.27
2018-12-17T05:42:27.913Z,11.87
2018-12-17T05:44:55.488Z,15.13
2018-12-17T05:47:24.664Z,12.27
2018-12-17T05:49:53.039Z,13.87
2018-12-17T05:52:20.606Z,12.03
2018-12-17T05:54:48.311Z,13.03
2018-12-17T05:57:17.680Z,13.57
2018-12-17T05:59:45.238Z,20.83
2018-12-17T06:02:12.735Z,13.80
2018-12-17T06:04:40.359Z,17.97
2018-12-17T06:07:07.875Z,14.40
2018-12-17T06:09:35.748Z,14.97
2018-12-17T06:12:03.266Z,16.10
2018-12-17T06:14:30.796Z,12.03
2018-12-17T06:16:58.308Z,11.13
2018-12-17T06:19:25.823Z,7.00
2018-12-17T06:21:53.423Z,10.80
2018-12-17T06:24:20.960Z,11.47
2018-12-17T06:26:48.461Z,7.40
2018-12-17T06:29:15.969Z,6.87
2018-12-17T06:31:43.485Z,8.63
2018-12-17T06:34:10.983Z,6.80
2018-12-17T06:36:38.739Z,8.87
2018-12-17T06:39:06.665Z,5.83
2018-12-17T06:41:34.200Z,5.60
2018-12-17T06:44:01.712Z,9.83
2018-12-17T06:46:29.391Z,7.60
2018-12-17T06:48:56.903Z,3.67
2018-12-17T06:51:24.772Z,5.23
2018-12-17T06:53:52.280Z,7.10
2018-12-17T06:56:22.498Z,8.43
2018-12-17T06:58:50.011Z,12.03
2018-12-17T07:01:17.514Z,6.03
2018-12-17T07:03:45.017Z,5.73
2018-12-17T07:06:12.523Z,3.30
2018-12-17T07:08:40.022Z,4.83
2018-12-17T07:11:07.521Z,5.80
2018-12-17T07:13:35.023Z,3.97
2018-12-17T07:16:02.531Z,7.03
2018-12-17T07:18:30.024Z,5.37
2018-12-17T07:20:57.532Z,4.63
2018-12-17T07:23:25.034Z,7.33
2018-12-17T07:25:52.542Z,4.43
2018-12-17T07:28:20.054Z,7.30
2018-12-17T07:30:47.553Z,6.60
2018-12-17T07:33:15.068Z,9.67
2018-12-17T07:35:42.573Z,5.90
2018-12-17T07:38:10.086Z,4.33
2018-12-17T07:40:37.588Z,9.20
2018-12-17T07:43:05.117Z,5.63
2018-12-17T07:45:32.629Z,5.90
2018-12-17T07:48:00.164Z,9.33
2018-12-17T07:50:27.787Z,11.93
2018-12-17T07:52:55.301Z,16.37
2018-12-17T07:55:22.917Z,6.87
2018-12-17T07:57:50.421Z,9.63
2018-12-17T08:00:17.928Z,8.03
2018-12-17T08:02:45.447Z,8.97
2018-12-17T08:05:12.968Z,5.37
2018-12-17T08:07:40.465Z,10.33
2018-12-17T08:10:07.973Z,11.67
2018-12-17T08:12:35.518Z,7.97
2018-12-17T08:15:03.486Z,13.87
2018-12-17T08:17:31.080Z,15.77
2018-12-17T08:19:58.718Z,12.20
2018-12-17T08:22:26.244Z,10.27
2018-12-17T08:24:53.874Z,11.13
2018-12-17T08:27:21.389Z,13.93
2018-12-17T08:29:48.967Z,12.97
2018-12-17T08:32:16.474Z,11.97
2018-12-17T08:34:43.986Z,13.43
2018-12-17T08:37:11.510Z,8.50
2018-12-17T08:39:39.029Z,11.07
2018-12-17T08:42:06.547Z,11.37
2018-12-17T08:44:34.197Z,11.97
2018-12-17T08:47:01.717Z,14.50
2018-12-17T08:49:29.219Z,12.23
2018-12-17T08:51:56.770Z,14.07
2018-12-17T08:54:24.359Z,16.17
2018-12-17T08:56:52.000Z,9.57
2018-12-17T08:59:19.511Z,14.43
2018-12-17T09:01:47.113Z,15.23
2018-12-17T09:04:14.633Z,14.53
2018-12-17T09:06:42.228Z,14.03
2018-12-17T09:09:09.953Z,16.70
2018-12-17T09:11:37.453Z,16.07
2018-12-17T09:14:04.961Z,11.37
2018-12-17T09:16:32.482Z,10.03
2018-12-17T09:19:00.048Z,15.47
2018-12-17T09:21:27.566Z,17.10
2018-12-17T09:23:55.083Z,13.70
2018-12-17T09:26:22.733Z,11.47
2018-12-17T09:28:50.270Z,13.70
2018-12-17T09:31:17.807Z,11.43
2018-12-17T09:33:45.316Z,12.13
2018-12-17T09:36:12.948Z,15.00
2018-12-17T09:38:40.466Z,16.47
2018-12-17T09:41:08.102Z,15.87
2018-12-17T09:43:35.620Z,13.73
2018-12-17T09:46:03.117Z,10.63
2018-12-17T09:48:30.648Z,11.43
2018-12-17T09:50:58.152Z,9.70
2018-12-17T09:53:25.691Z,12.63
2018-12-17T09:55:53.207Z,17.03
2018-12-17T09:58:20.729Z,11.53
2018-12-17T10:00:48.236Z,13.80
2018-12-17T10:03:15.744Z,10.60
2018-12-17T10:05:43.287Z,15.53
2018-12-17T10:08:10.792Z,13.77
2018-12-17T10:10:38.289Z,13.97
2018-12-17T10:13:05.835Z,11.63
2018-12-17T10:15:33.338Z,15.67
2018-12-17T10:18:00.839Z,14.43
2018-12-17T10:20:28.356Z,10.60
2018-12-17T10:22:55.859Z,17.47
2018-12-17T10:25:23.371Z,16.73
2018-12-17T10:27:50.887Z,18.50
2018-12-17T10:30:18.475Z,13.87
2018-12-17T10:32:45.987Z,14.30
2018-12-17T10:35:13.487Z,15.27
2018-12-17T10:37:41.013Z,13.20
2018-12-17T10:40:09.109Z,18.03
2018-12-17T10:42:36.614Z,16.10
2018-12-17T10:45:05.070Z,17.70
2018-12-17T10:47:32.607Z,15.27
2018-12-17T10:50:00.113Z,15.83
2018-12-17T10:52:27.615Z,13.93
2018-12-17T10:54:55.119Z,14.93
2018-12-17T10:57:22.648Z,10.50
2018-12-17T10:59:50.183Z,15.30
2018-12-17T11:02:20.286Z,14.50
2018-12-17T11:04:49.762Z,11.50
2018-12-17T11:07:17.257Z,11.20
2018-12-17T11:09:44.785Z,12.50
2018-12-17T11:12:12.410Z,12.67
2018-12-17T11:14:39.922Z,13.33
2018-12-17T11:17:07.537Z,15.13
2018-12-17T11:19:35.050Z,9.60
2018-12-17T11:22:02.588Z,14.97
2018-12-17T11:24:30.114Z,13.33
2018-12-17T11:26:57.612Z,12.37
2018-12-17T11:29:25.214Z,16.03
2018-12-17T11:31:52.726Z,13.47
2018-12-17T11:34:21.143Z,13.60
2018-12-17T11:36:48.640Z,10.47
2018-12-17T11:39:16.157Z,16.80
2018-12-17T11:41:43.682Z,14.77
2018-12-17T11:44:11.197Z,11.83
2018-12-17T11:46:38.722Z,14.30
2018-12-17T11:49:06.222Z,12.23
2018-12-17T11:51:33.792Z,9.93
2018-12-17T11:54:01.320Z,11.40
2018-12-17T11:56:36.427Z,16.43
2018-12-17T11:59:03.948Z,11.33
2018-12-17T12:01:31.499Z,18.37
2018-12-17T12:03:59.230Z,15.00
2018-12-17T12:06:26.748Z,20.03
2018-12-17T12:08:54.307Z,13.43
2018-12-17T12:11:21.830Z,13.60
2018-12-17T12:13:49.325Z,11.23
2018-12-17T12:16:16.822Z,15.20
2018-12-17T12:18:47.511Z,13.23
2018-12-17T12:21:15.026Z,10.20
2018-12-17T12:23:44.653Z,11.53
2018-12-17T12:26:12.315Z,15.27
2018-12-17T12:28:42.874Z,12.63
2018-12-17T12:31:11.601Z,12.23
2018-12-17T12:33:39.117Z,10.50
2018-12-17T12:36:06.614Z,14.17
2018-12-17T12:38:37.415Z,15.13
2018-12-17T12:41:04.936Z,8.73
2018-12-17T12:43:32.580Z,14.20
2018-12-17T12:46:00.090Z,10.43
2018-12-17T12:48:30.918Z,10.90
2018-12-17T12:51:14.426Z,13.03
2018-12-17T12:53:42.003Z,15.73
2018-12-17T12:56:09.513Z,14.47
2018-12-17T12:58:37.028Z,14.40
2018-12-17T13:01:07.569Z,11.63
2018-12-17T13:03:34.068Z,15.17
2018-12-17T13:06:01.601Z,17.03
2018-12-17T13:08:29.479Z,13.27
2018-12-17T13:10:56.989Z,13.23
2018-12-17T13:13:24.522Z,12.20
2018-12-17T13:15:52.039Z,11.73
2018-12-17T13:18:19.641Z,12.83
2018-12-17T13:20:47.164Z,15.50
2018-12-17T13:23:14.683Z,15.67
2018-12-17T13:25:43.981Z,14.20
2018-12-17T13:28:11.522Z,14.77
2018-12-17T13:30:39.025Z,8.23
2018-12-17T13:33:06.553Z,9.03
2018-12-17T13:35:34.064Z,13.53
2018-12-17T13:38:01.573Z,18.97
2018-12-17T13:40:29.082Z,10.30
2018-12-17T13:42:56.688Z,16.20
2018-12-17T13:45:24.202Z,15.23
2018-12-17T13:47:51.797Z,13.07
2018-12-17T13:50:30.076Z,18.40
2018-12-17T13:52:56.544Z,15.73
2018-12-17T13:55:24.064Z,16.17
2018-12-17T13:57:51.581Z,12.40
2018-12-17T14:00:19.098Z,12.50
2018-12-17T14:02:46.653Z,14.77
2018-12-17T14:05:14.203Z,15.37
2018-12-17T14:07:41.715Z,12.33
2018-12-17T14:10:14.805Z,15.50
2018-12-17T14:12:42.308Z,13.43
2018-12-17T14:15:09.826Z,20.30
2018-12-17T14:17:37.355Z,11.10
2018-12-17T14:20:12.500Z,16.20
2018-12-17T14:22:40.011Z,17.93
2018-12-17T14:25:07.623Z,16.03
2018-12-17T14:27:35.147Z,16.80
2018-12-17T14:30:02.686Z,19.97
2018-12-17T14:32:30.203Z,19.17
2018-12-17T14:34:57.739Z,19.70
2018-12-17T14:37:25.285Z,19.93
2018-12-17T14:39:52.936Z,23.60
2018-12-17T14:42:20.443Z,20.33
2018-12-17T14:44:47.959Z,21.03
2018-12-17T14:47:15.472Z,18.80
2018-12-17T14:49:42.980Z,19.57
2018-12-17T14:52:10.487Z,15.10
2018-12-17T14:54:37.992Z,17.97
2018-12-17T14:57:05.506Z,13.40
2018-12-17T14:59:33.024Z,16.60
2018-12-17T15:02:00.531Z,23.10
2018-12-17T15:04:28.048Z,33.23
2018-12-17T15:06:55.634Z,22.53
2018-12-17T15:09:23.251Z,30.37
2018-12-17T15:11:50.755Z,20.87
2018-12-17T15:14:18.269Z,22.13
2018-12-17T15:16:45.835Z,20.07
2018-12-17T15:19:13.943Z,22.57
2018-12-17T15:21:41.759Z,28.47
2018-12-17T15:24:09.276Z,25.00
2018-12-17T15:26:36.794Z,23.30
2018-12-17T15:29:04.430Z,19.57
2018-12-17T15:31:32.043Z,21.77
2018-12-17T15:33:59.627Z,17.53
2018-12-17T15:36:27.130Z,19.33
2018-12-17T15:38:54.641Z,16.47
2018-12-17T15:41:22.191Z,16.80
2018-12-17T15:43:49.699Z,15.77
2018-12-17T15:46:17.208Z,20.17
2018-12-17T15:48:44.824Z,16.30
2018-12-17T15:51:12.333Z,16.60
2018-12-17T15:53:39.841Z,16.73
2018-12-17T15:56:07.360Z,15.73
2018-12-17T15:58:34.883Z,19.90
2018-12-17T16:01:02.383Z,16.63
2018-12-17T16:03:29.883Z,22.80
2018-12-17T16:05:57.389Z,19.70
2018-12-17T16:08:24.910Z,12.80
2018-12-17T16:10:52.588Z,17.73
2018-12-17T16:13:20.159Z,21.77
2018-12-17T16:15:47.659Z,24.93
2018-12-17T16:18:15.172Z,22.87
2018-12-17T16:20:42.675Z,20.37
2018-12-17T16:23:10.199Z,18.10
2018-12-17T16:25:37.692Z,18.47
2018-12-17T16:28:05.206Z,18.67
2018-12-17T16:30:32.722Z,23.23
2018-12-17T16:33:00.232Z,22.87
2018-12-17T16:35:27.750Z,35.60
2018-12-17T16:37:55.267Z,25.60
2018-12-17T16:40:22.957Z,24.13
2018-12-17T16:42:50.460Z,23.77
2018-12-17T16:45:18.033Z,28.07
2018-12-17T16:47:45.539Z,29.93
2018-12-17T16:50:13.076Z,25.03
2018-12-17T16:52:40.600Z,30.30
2018-12-17T16:55:08.118Z,26.83
2018-12-17T16:57:35.619Z,24.03
2018-12-17T17:00:04.668Z,20.57
2018-12-17T17:02:32.172Z,20.43
2018-12-17T17:04:59.717Z,23.27
2018-12-17T17:07:27.218Z,24.53
2018-12-17T17:09:56.713Z,26.00
2018-12-17T17:12:24.245Z,21.00
2018-12-17T17:14:51.779Z,26.20
2018-12-17T17:17:19.273Z,19.40
2018-12-17T17:19:50.766Z,17.87
2018-12-17T17:22:16.393Z,35.53
2018-12-17T17:24:43.903Z,38.60
2018-12-17T17:27:11.403Z,28.87
2018-12-17T17:29:38.926Z,23.43
2018-12-17T17:32:11.688Z,18.60
2018-12-17T17:34:35.965Z,16.50
2018-12-17T17:37:03.478Z,19.97
2018-12-17T17:39:30.990Z,23.03
2018-12-17T17:41:58.563Z,41.37
2018-12-17T17:44:26.261Z,45.07
2018-12-17T17:46:53.917Z,64.20
2018-12-17T17:49:21.749Z,61.00
2018-12-17T17:51:49.271Z,47.03
2018-12-17T17:54:16.812Z,36.87
2018-12-17T17:56:44.355Z,61.77
2018-12-17T17:59:11.870Z,59.70
2018-12-17T18:01:39.381Z,48.73
2018-12-17T18:04:06.904Z,49.80
2018-12-17T18:06:34.411Z,51.93
2018-12-17T18:09:01.934Z,47.80
2018-12-17T18:11:29.902Z,38.93
2018-12-17T18:13:57.415Z,38.97
2018-12-17T18:16:24.967Z,32.57
2018-12-17T18:18:52.517Z,20.07
2018-12-17T18:21:20.029Z,20.80
2018-12-17T18:23:47.558Z,22.77
2018-12-17T18:26:15.157Z,34.63
2018-12-17T18:28:42.691Z,38.33
2018-12-17T18:31:10.320Z,46.80
2018-12-17T18:33:37.827Z,35.53
2018-12-17T18:36:05.641Z,29.20
2018-12-17T18:38:33.168Z,25.53
2018-12-17T18:41:00.677Z,31.97
2018-12-17T18:43:28.284Z,40.07
2018-12-17T18:45:55.815Z,35.60
2018-12-17T18:48:23.356Z,46.00
2018-12-17T18:50:50.865Z,56.20
2018-12-17T18:53:18.383Z,54.63
2018-12-17T18:55:45.895Z,50.80
2018-12-17T18:58:13.431Z,47.97
2018-12-17T19:00:41.068Z,48.90
2018-12-17T19:03:08.574Z,33.97
2018-12-17T19:05:36.089Z,34.33
2018-12-17T19:08:03.599Z,29.40
2018-12-17T19:10:33.098Z,30.20
2018-12-17T19:13:00.610Z,29.13
2018-12-17T19:15:28.118Z,30.53
2018-12-17T19:17:55.995Z,45.97
2018-12-17T19:20:23.520Z,49.17
2018-12-17T19:22:51.031Z,51.23
2018-12-17T19:25:18.548Z,53.40
2018-12-17T19:27:46.055Z,55.77
2018-12-17T19:30:13.576Z,44.10
2018-12-17T19:32:41.130Z,39.47
2018-12-17T19:35:08.662Z,30.83
2018-12-17T19:37:36.176Z,31.67
2018-12-17T19:40:06.101Z,33.60
2018-12-17T19:42:33.618Z,29.77
2018-12-17T19:45:01.129Z,30.77
2018-12-17T19:47:28.636Z,27.90
2018-12-17T19:49:56.156Z,24.97
2018-12-17T19:52:23.677Z,27.43
2018-12-17T19:54:51.201Z,24.63
2018-12-17T19:57:18.720Z,25.17
2018-12-17T19:59:46.234Z,32.70
2018-12-17T20:02:13.740Z,23.93
2018-12-17T20:04:41.304Z,31.50
2018-12-17T20:07:08.964Z,31.83
2018-12-17T20:09:36.476Z,27.23
2018-12-17T20:12:03.985Z,30.30
2018-12-17T20:14:31.527Z,25.40
2018-12-17T20:16:59.059Z,24.70
2018-12-17T20:19:26.602Z,20.57
2018-12-17T20:21:54.114Z,24.57
2018-12-17T20:24:21.627Z,22.10
2018-12-17T20:26:49.158Z,24.00
2018-12-17T20:29:16.683Z,20.97
2018-12-17T20:31:44.200Z,25.70
2018-12-17T20:34:12.929Z,25.60
2018-12-17T20:36:40.439Z,21.20
2018-12-17T20:39:08.146Z,31.87
2018-12-17T20:41:35.807Z,24.63
2018-12-17T20:44:03.331Z,21.43
2018-12-17T20:46:30.843Z,21.00
2018-12-17T20:48:58.362Z,30.60
2018-12-17T20:51:25.884Z,20.63
2018-12-17T20:53:53.563Z,17.30
2018-12-17T20:56:21.061Z,19.83
2018-12-17T20:58:48.578Z,18.13
2018-12-17T21:01:16.081Z,17.87
2018-12-17T21:03:43.612Z,21.67
2018-12-17T21:06:11.134Z,18.67
2018-12-17T21:08:38.631Z,23.93
2018-12-17T21:11:06.139Z,18.07
2018-12-17T21:13:33.653Z,17.67
2018-12-17T21:16:01.185Z,22.43
2018-12-17T21:18:28.709Z,18.97
2018-12-17T21:20:56.321Z,18.10
2018-12-17T21:23:24.107Z,21.03
2018-12-17T21:25:51.782Z,21.37
2018-12-17T21:28:19.375Z,25.70
2018-12-17T21:30:47.087Z,24.37
2018-12-17T21:33:14.611Z,25.97
2018-12-17T21:35:42.391Z,22.53
2018-12-17T21:38:09.918Z,23.90
2018-12-17T21:40:37.687Z,27.37
2018-12-17T21:43:05.281Z,37.77
2018-12-17T21:45:32.799Z,42.00
2018-12-17T21:48:00.835Z,42.37
2018-12-17T21:50:28.409Z,42.57
2018-12-17T21:52:57.659Z,43.77
2018-12-17T21:55:25.207Z,53.33
2018-12-17T21:57:52.737Z,49.83
2018-12-17T22:00:20.256Z,51.17
2018-12-17T22:02:47.779Z,48.83
2018-12-17T22:05:15.391Z,48.57
2018-12-17T22:07:42.921Z,48.97
2018-12-17T22:10:13.945Z,45.67
2018-12-17T22:12:41.467Z,49.07
2018-12-17T22:15:09.014Z,46.07
2018-12-17T22:17:36.546Z,38.90
2018-12-17T22:20:05.209Z,40.50
2018-12-17T22:22:32.727Z,44.37
2018-12-17T22:25:00.243Z,46.00
2018-12-17T22:27:27.941Z,45.13
2018-12-17T22:29:55.487Z,46.83
2018-12-17T22:32:22.998Z,47.53
2018-12-17T22:34:50.541Z,49.70
2018-12-17T22:37:18.070Z,47.90
2018-12-17T22:39:45.581Z,47.47
2018-12-17T22:42:13.119Z,49.93
2018-12-17T22:44:41.827Z,44.80
2018-12-17T22:47:09.340Z,40.97
2018-12-17T22:49:36.845Z,45.10
2018-12-17T22:52:04.385Z,43.60
2018-12-17T22:54:31.928Z,47.17
2018-12-17T22:56:59.452Z,44.57
2018-12-17T22:59:27.008Z,44.97
2018-12-17T23:01:54.518Z,46.77
2018-12-17T23:04:22.030Z,50.83
2018-12-17T23:06:49.532Z,48.77
2018-12-17T23:09:16.680Z,49.40
2018-12-17T23:12:01.786Z,46.83
2018-12-17T23:14:41.098Z,52.60
2018-12-17T23:17:20.502Z,43.00
2018-12-17T23:19:48.119Z,47.50
2018-12-17T23:22:15.616Z,45.90
2018-12-17T23:24:43.223Z,43.27
2018-12-17T23:27:10.825Z,48.77
2018-12-17T23:29:38.363Z,47.67
2018-12-17T23:32:05.869Z,55.50
2018-12-17T23:34:33.382Z,50.83
2018-12-17T23:37:00.915Z,52.53
2018-12-17T23:39:28.422Z,49.03
2018-12-17T23:41:55.930Z,50.13
2018-12-17T23:44:23.442Z,51.73
2018-12-17T23:46:50.946Z,58.13
2018-12-17T23:49:18.469Z,53.63
2018-12-17T23:51:45.979Z,59.57
2018-12-17T23:54:13.491Z,52.90
2018-12-17T23:56:41.180Z,49.17
2018-12-17T23:59:08.739Z,53.10
